createdAt,value
2018-10-12T00:02:35.887Z,28.30
2018-10-12T00:05:26.837Z,26.87
2018-10-12T00:08:17.487Z,25.43
2018-10-12T00:11:08.492Z,25.80
2018-10-12T00:13:59.386Z,26.62
2018-10-12T00:16:50.559Z,23.85
2018-10-12T00:19:41.314Z,25.57
2018-10-12T00:22:32.241Z,25.48
2018-10-12T00:25:22.894Z,25.43
2018-10-12T00:28:14.478Z,29.70
2018-10-12T00:31:05.199Z,33.08
2018-10-12T00:33:57.052Z,36.35
2018-10-12T00:36:48.225Z,36.30
2018-10-12T00:39:39.608Z,33.40
2018-10-12T00:42:30.109Z,31.17
2018-10-12T00:45:21.105Z,30.88
2018-10-12T00:48:12.031Z,31.25
2018-10-12T00:51:02.856Z,33.05
2018-10-12T00:53:54.613Z,32.60
2018-10-12T00:56:45.171Z,34.23
2018-10-12T00:59:36.143Z,33.60
2018-10-12T01:02:27.149Z,34.92
2018-10-12T01:05:17.655Z,36.80
2018-10-12T01:08:08.357Z,38.92
2018-10-12T01:10:59.056Z,43.50
2018-10-12T01:13:51.811Z,44.20
2018-10-12T01:16:43.064Z,44.48
2018-10-12T01:19:34.035Z,42.53
2018-10-12T01:22:24.873Z,42.60
2018-10-12T01:25:16.056Z,43.05
2018-10-12T01:28:06.902Z,39.50
2018-10-12T01:30:57.755Z,37.50
2018-10-12T01:33:50.165Z,35.88
2018-10-12T01:36:40.880Z,33.95
2018-10-12T01:39:31.593Z,28.75
2018-10-12T01:42:22.612Z,23.87
2018-10-12T01:45:14.071Z,21.52
2018-10-12T01:48:05.203Z,20.02
2018-10-12T01:50:56.197Z,18.77
2018-10-12T01:53:47.536Z,18.98
2018-10-12T01:56:38.537Z,20.05
2018-10-12T01:59:29.231Z,20.37
2018-10-12T02:02:21.892Z,21.80
2018-10-12T02:05:12.643Z,22.67
2018-10-12T02:08:06.886Z,23.20
2018-10-12T02:10:58.459Z,26.68
2018-10-12T02:13:49.191Z,27.50
2018-10-12T02:16:40.202Z,27.73
2018-10-12T02:19:31.548Z,25.70
2018-10-12T02:22:22.268Z,28.02
2018-10-12T02:25:16.818Z,26.35
2018-10-12T02:28:08.216Z,25.10
2018-10-12T02:30:58.998Z,24.25
2018-10-12T02:33:51.189Z,25.35
2018-10-12T02:36:42.289Z,25.27
2018-10-12T02:39:33.129Z,23.45
2018-10-12T02:42:24.164Z,21.95
2018-10-12T02:45:14.746Z,22.55
2018-10-12T02:48:04.993Z,33.55
2018-10-12T02:50:56.137Z,36.00
2018-10-12T02:53:46.981Z,43.73
2018-10-12T02:56:38.081Z,38.00
2018-10-12T02:59:28.649Z,28.52
2018-10-12T03:02:20.025Z,23.20
2018-10-12T03:05:10.954Z,23.55
2018-10-12T03:08:01.803Z,21.80
2018-10-12T03:10:52.555Z,21.50
2018-10-12T03:13:44.182Z,20.80
2018-10-12T03:16:34.544Z,21.82
2018-10-12T03:19:25.654Z,21.52
2018-10-12T03:22:16.579Z,19.07
2018-10-12T03:25:07.220Z,26.70
2018-10-12T03:28:05.664Z,19.37
2018-10-12T03:30:56.105Z,19.05
2018-10-12T03:33:48.613Z,18.60
2018-10-12T03:36:40.839Z,19.80
2018-10-12T03:39:31.917Z,18.40
2018-10-12T03:42:23.045Z,19.30
2018-10-12T03:45:13.293Z,19.80
2018-10-12T03:48:04.434Z,19.52
2018-10-12T03:50:55.915Z,20.75
2018-10-12T03:53:48.611Z,49.35
2018-10-12T03:56:39.379Z,21.12
2018-10-12T03:59:30.383Z,22.00
2018-10-12T04:02:22.184Z,20.88
2018-10-12T04:05:13.506Z,26.50
2018-10-12T04:08:04.211Z,21.20
2018-10-12T04:10:55.408Z,20.90
2018-10-12T04:13:48.538Z,21.20
2018-10-12T04:16:39.234Z,23.85
2018-10-12T04:19:30.090Z,22.75
2018-10-12T04:22:24.990Z,21.55
2018-10-12T04:25:16.204Z,21.45
2018-10-12T04:28:07.223Z,21.23
2018-10-12T04:30:59.547Z,20.68
2018-10-12T04:33:51.837Z,22.48
2018-10-12T04:36:42.670Z,23.85
2018-10-12T04:39:44.309Z,23.38
2018-10-12T04:42:35.281Z,21.25
2018-10-12T04:52:38.410Z,21.93
2018-10-12T04:55:29.357Z,24.30
2018-10-12T04:58:20.289Z,23.35
2018-10-12T05:01:11.687Z,22.02
2018-10-12T05:04:02.640Z,22.22
2018-10-12T05:06:53.673Z,24.35
2018-10-12T05:09:45.114Z,23.62
2018-10-12T05:12:36.229Z,22.32
2018-10-12T05:15:26.609Z,23.42
2018-10-12T05:18:17.934Z,23.73
2018-10-12T05:21:09.590Z,23.27
2018-10-12T05:24:04.206Z,20.82
2018-10-12T05:26:57.450Z,20.82
2018-10-12T05:33:00.514Z,18.12
2018-10-12T05:36:08.671Z,19.73
2018-10-12T05:39:23.027Z,19.35
2018-10-12T05:42:23.471Z,16.93
2018-10-12T05:46:02.002Z,16.75
2018-10-12T05:49:16.556Z,17.92
2018-10-12T05:52:14.834Z,17.05
2018-10-12T05:55:15.137Z,17.05
2018-10-12T05:58:07.944Z,17.62
2018-10-12T06:00:59.759Z,17.60
2018-10-12T06:03:51.750Z,17.60
2018-10-12T06:06:43.159Z,18.10
2018-10-12T06:09:34.860Z,16.27
2018-10-12T06:12:26.694Z,16.02
2018-10-12T06:15:23.315Z,16.15
2018-10-12T06:18:18.099Z,16.52
2018-10-12T06:21:10.677Z,19.32
2018-10-12T06:24:05.760Z,15.48
2018-10-12T06:26:59.131Z,14.53
2018-10-12T06:29:52.885Z,16.60
2018-10-12T06:32:45.603Z,15.93
2018-10-12T06:35:38.985Z,15.72
2018-10-12T06:38:31.145Z,16.95
2018-10-12T06:44:24.935Z,19.25
2018-10-12T06:50:36.371Z,15.45
2018-10-12T06:53:29.453Z,15.68
2018-10-12T06:56:22.234Z,15.78
2018-10-12T06:59:14.793Z,17.00
2018-10-12T07:02:07.756Z,17.20
2018-10-12T07:05:01.584Z,14.93
2018-10-12T07:07:57.449Z,15.83
2018-10-12T07:10:52.367Z,16.20
2018-10-12T07:13:56.352Z,15.08
2018-10-12T07:16:53.975Z,16.85
2018-10-12T07:33:34.239Z,16.25
2018-10-12T07:36:30.583Z,15.00
2018-10-12T07:39:33.982Z,16.65
2018-10-12T07:42:27.270Z,14.38
2018-10-12T07:45:21.774Z,14.63
2018-10-12T07:48:16.493Z,14.30
2018-10-12T07:51:11.473Z,15.53
2018-10-12T07:54:04.058Z,15.35
2018-10-12T07:56:59.504Z,20.20
2018-10-12T07:59:57.468Z,21.62
2018-10-12T08:02:50.374Z,16.00
2018-10-12T08:05:46.231Z,13.65
2018-10-12T08:12:12.983Z,13.68
2018-10-12T08:15:05.875Z,16.73
2018-10-12T08:17:57.013Z,13.13
2018-10-12T08:20:48.208Z,14.05
2018-10-12T08:23:39.181Z,14.93
2018-10-12T08:26:29.752Z,13.80
2018-10-12T08:29:25.222Z,19.70
2018-10-12T08:32:19.500Z,15.90
2018-10-12T08:35:16.263Z,18.02
2018-10-12T08:38:07.386Z,15.40
2018-10-12T08:41:05.415Z,14.63
2018-10-12T08:43:59.212Z,14.20
2018-10-12T08:46:50.031Z,14.78
2018-10-12T08:49:41.436Z,14.73
2018-10-12T08:52:32.379Z,15.43
2018-10-12T08:55:24.364Z,13.32
2018-10-12T08:58:15.523Z,13.83
2018-10-12T09:01:07.159Z,14.43
2018-10-12T09:04:13.208Z,12.35
2018-10-12T09:07:07.924Z,12.95
2018-10-12T09:09:59.112Z,12.43
2018-10-12T09:12:50.733Z,13.32
2018-10-12T09:15:42.228Z,13.35
2018-10-12T09:18:39.220Z,12.13
2018-10-12T09:21:35.113Z,12.85
2018-10-12T09:28:23.467Z,14.38
2018-10-12T09:35:12.085Z,11.90
2018-10-12T09:38:32.756Z,10.80
2018-10-12T09:41:40.628Z,11.08
2018-10-12T09:44:43.647Z,11.83
2018-10-12T09:47:42.029Z,14.83
2018-10-12T09:50:40.920Z,13.62
2018-10-12T09:53:35.806Z,13.43
2018-10-12T09:56:40.597Z,15.23
2018-10-12T10:03:17.178Z,11.10
2018-10-12T10:06:11.772Z,11.43
2018-10-12T10:09:10.945Z,12.10
2018-10-12T10:12:10.147Z,11.95
2018-10-12T10:15:09.531Z,12.30
2018-10-12T10:18:06.134Z,14.78
2018-10-12T10:21:00.066Z,12.03
2018-10-12T10:24:06.120Z,13.62
2018-10-12T10:27:08.876Z,13.90
2018-10-12T10:31:46.120Z,12.45
2018-10-12T10:48:19.592Z,10.20
2018-10-12T10:51:08.045Z,10.38
2018-10-12T10:53:59.427Z,9.60
2018-10-12T10:56:50.562Z,10.60
2018-10-12T10:59:41.341Z,8.80
2018-10-12T11:02:50.165Z,9.05
2018-10-12T11:05:43.737Z,8.98
2018-10-12T11:08:32.648Z,9.83
2018-10-12T11:11:21.024Z,10.60
2018-10-12T11:14:11.484Z,11.97
2018-10-12T11:17:01.960Z,12.18
2018-10-12T11:19:52.586Z,11.15
2018-10-12T11:22:42.600Z,10.25
2018-10-12T11:25:36.372Z,10.70
2018-10-12T11:28:28.165Z,11.08
2018-10-12T11:31:16.442Z,11.80
2018-10-12T11:34:04.997Z,11.93
2018-10-12T11:36:52.891Z,12.03
2018-10-12T11:39:41.266Z,11.65
2018-10-12T11:42:32.962Z,11.18
2018-10-12T11:45:26.248Z,11.15
2018-10-12T11:48:22.916Z,13.15
2018-10-12T11:51:18.224Z,11.88
2018-10-12T11:54:10.300Z,13.60
2018-10-12T11:57:04.081Z,12.53
2018-10-12T11:59:58.603Z,11.73
2018-10-12T12:02:51.491Z,12.10
2018-10-12T12:05:45.974Z,11.88
2018-10-12T12:08:38.113Z,12.65
2018-10-12T12:11:29.138Z,13.48
2018-10-12T12:14:21.509Z,14.35
2018-10-12T12:17:12.489Z,14.13
2018-10-12T12:20:05.232Z,13.40
2018-10-12T12:22:55.953Z,13.68
2018-10-12T12:25:46.460Z,13.32
2018-10-12T12:28:38.566Z,14.60
2018-10-12T12:31:32.698Z,18.42
2018-10-12T12:34:22.719Z,21.48
2018-10-12T12:37:12.990Z,23.70
2018-10-12T12:40:04.365Z,24.00
2018-10-12T12:43:00.531Z,25.35
2018-10-12T12:45:51.049Z,23.55
2018-10-12T12:48:43.025Z,26.25
2018-10-12T12:51:33.414Z,25.08
2018-10-12T12:54:26.969Z,27.70
2018-10-12T12:57:21.872Z,26.15
2018-10-12T13:00:13.289Z,27.27
2018-10-12T13:03:03.607Z,24.82
2018-10-12T13:05:54.179Z,26.30
2018-10-12T13:08:47.911Z,27.05
2018-10-12T13:11:40.612Z,28.02
2018-10-12T13:14:31.749Z,26.05
2018-10-12T13:17:24.155Z,25.62
2018-10-12T13:20:16.215Z,27.45
2018-10-12T13:23:07.803Z,26.15
2018-10-12T13:25:59.856Z,26.82
2018-10-12T13:28:52.114Z,27.98
2018-10-12T13:31:44.463Z,27.65
2018-10-12T13:34:38.072Z,27.98
2018-10-12T13:37:30.513Z,27.25
2018-10-12T13:40:21.029Z,28.02
2018-10-12T13:43:13.190Z,26.87
2018-10-12T13:46:05.602Z,27.80
2018-10-12T13:48:58.114Z,27.20
2018-10-12T13:51:50.510Z,25.92
2018-10-12T13:54:44.225Z,26.75
2018-10-12T13:57:35.450Z,27.60
2018-10-12T14:00:27.994Z,26.02
2018-10-12T14:03:20.383Z,27.67
2018-10-12T14:06:11.565Z,28.77
2018-10-12T14:09:01.959Z,30.37
2018-10-12T14:11:53.396Z,27.40
2018-10-12T14:14:44.765Z,28.70
2018-10-12T14:17:36.201Z,28.45
2018-10-12T14:20:28.429Z,28.42
2018-10-12T14:23:21.227Z,30.20
2018-10-12T14:26:13.005Z,30.12
2018-10-12T14:29:03.699Z,26.52
2018-10-12T14:31:55.746Z,27.67
2018-10-12T14:34:47.198Z,31.37
2018-10-12T14:37:37.742Z,27.67
2018-10-12T14:40:28.978Z,26.48
2018-10-12T14:43:21.296Z,26.65
2018-10-12T14:46:12.114Z,26.15
2018-10-12T14:49:03.012Z,25.30
2018-10-12T14:51:53.778Z,25.05
2018-10-12T14:54:45.004Z,26.70
2018-10-12T14:57:35.475Z,25.20
2018-10-12T15:00:26.165Z,25.52
2018-10-12T15:03:18.295Z,25.90
2018-10-12T15:06:09.545Z,27.25
2018-10-12T15:09:00.084Z,27.73
2018-10-12T15:11:51.634Z,27.42
2018-10-12T15:14:50.969Z,27.40
2018-10-12T15:17:42.534Z,24.98
2018-10-12T15:20:33.434Z,25.57
2018-10-12T15:23:25.456Z,24.43
2018-10-12T15:26:17.490Z,25.27
2018-10-12T15:29:10.917Z,25.92
2018-10-12T15:32:02.953Z,26.00
2018-10-12T15:34:55.204Z,25.25
2018-10-12T15:37:47.800Z,25.97
2018-10-12T15:40:39.616Z,25.23
2018-10-12T15:43:33.112Z,25.30
2018-10-12T15:46:23.971Z,23.98
2018-10-12T15:49:15.096Z,24.55
2018-10-12T15:52:08.443Z,24.15
2018-10-12T15:55:00.042Z,24.98
2018-10-12T15:57:52.363Z,25.35
2018-10-12T16:00:43.310Z,24.98
2018-10-12T16:03:35.019Z,24.72
2018-10-12T16:06:26.436Z,24.82
2018-10-12T16:09:17.589Z,25.12
2018-10-12T16:12:10.724Z,25.40
2018-10-12T16:15:03.558Z,25.15
2018-10-12T16:17:55.261Z,25.40
2018-10-12T16:20:47.162Z,25.35
2018-10-12T16:23:39.257Z,25.08
2018-10-12T16:26:30.672Z,25.70
2018-10-12T16:29:23.564Z,25.45
2018-10-12T16:32:14.785Z,25.88
2018-10-12T16:35:05.119Z,27.62
2018-10-12T16:37:55.789Z,25.35
2018-10-12T16:40:47.643Z,26.33
2018-10-12T16:43:38.213Z,27.00
2018-10-12T16:46:29.232Z,25.48
2018-10-12T16:49:20.021Z,25.80
2018-10-12T16:52:10.591Z,25.75
2018-10-12T16:55:01.513Z,25.48
2018-10-12T16:57:53.628Z,24.57
2018-10-12T17:00:44.181Z,25.60
2018-10-12T17:03:35.943Z,26.33
2018-10-12T17:06:28.173Z,26.02
2018-10-12T17:09:18.935Z,26.62
2018-10-12T17:12:11.297Z,24.90
2018-10-12T17:15:04.561Z,24.95
2018-10-12T17:17:57.690Z,24.23
2018-10-12T17:20:50.496Z,24.12
2018-10-12T17:23:42.840Z,26.77
2018-10-12T17:26:34.540Z,26.10
2018-10-12T17:29:26.580Z,24.72
2018-10-12T17:32:18.325Z,24.55
2018-10-12T17:35:11.242Z,24.47
2018-10-12T17:38:03.361Z,25.35
2018-10-12T17:40:57.414Z,24.70
2018-10-12T17:43:52.515Z,25.43
2018-10-12T17:46:46.030Z,24.02
2018-10-12T17:49:39.659Z,24.35
2018-10-12T17:52:32.119Z,24.63
2018-10-12T17:55:25.111Z,24.27
2018-10-12T17:58:17.728Z,24.63
2018-10-12T18:01:11.124Z,24.63
2018-10-12T18:04:03.797Z,25.32
2018-10-12T18:06:56.413Z,25.40
2018-10-12T18:09:48.896Z,24.67
2018-10-12T18:12:41.385Z,25.30
2018-10-12T18:15:34.646Z,25.27
2018-10-12T18:18:29.158Z,25.10
2018-10-12T18:21:23.692Z,24.87
2018-10-12T18:24:15.517Z,25.43
2018-10-12T18:27:07.298Z,25.30
2018-10-12T18:29:59.155Z,26.73
2018-10-12T18:32:52.299Z,25.88
2018-10-12T18:35:42.972Z,25.70
2018-10-12T18:38:37.616Z,25.35
2018-10-12T18:41:27.652Z,24.90
2018-10-12T18:44:19.595Z,25.80
2018-10-12T18:47:10.396Z,26.93
2018-10-12T18:50:02.534Z,26.52
2018-10-12T18:52:54.613Z,27.58
2018-10-12T18:55:45.218Z,27.05
2018-10-12T18:58:36.659Z,27.85
2018-10-12T19:01:28.541Z,27.27
2018-10-12T19:04:19.562Z,28.77
2018-10-12T19:07:11.367Z,28.65
2018-10-12T19:10:02.569Z,29.57
2018-10-12T19:12:54.912Z,28.25
2018-10-12T19:15:45.089Z,27.85
2018-10-12T19:18:34.644Z,27.93
2018-10-12T19:21:24.134Z,26.57
2018-10-12T19:24:15.956Z,28.23
2018-10-12T19:27:05.561Z,27.05
2018-10-12T19:29:56.603Z,27.27
2018-10-12T19:32:47.747Z,28.32
2018-10-12T19:35:38.510Z,26.75
2018-10-12T19:38:30.648Z,26.70
2018-10-12T19:41:20.955Z,26.45
2018-10-12T19:44:12.963Z,27.10
2018-10-12T19:47:04.856Z,27.80
2018-10-12T19:49:56.161Z,27.90
2018-10-12T19:52:47.809Z,27.20
2018-10-12T19:55:38.502Z,28.60
2018-10-12T19:58:29.195Z,29.37
2018-10-12T20:01:19.820Z,36.45
2018-10-12T20:04:11.587Z,45.70
2018-10-12T20:07:02.537Z,50.58
2018-10-12T20:09:55.735Z,57.65
2018-10-12T20:12:46.870Z,74.35
2018-10-12T20:15:37.781Z,72.72
2018-10-12T20:18:28.292Z,64.97
2018-10-12T20:21:18.799Z,62.08
2018-10-12T20:24:09.388Z,64.67
2018-10-12T20:27:00.287Z,60.92
2018-10-12T20:29:51.169Z,53.40
2018-10-12T20:32:43.012Z,55.00
2018-10-12T20:35:33.773Z,55.70
2018-10-12T20:38:24.606Z,58.48
2018-10-12T20:41:16.299Z,58.83
2018-10-12T20:44:08.562Z,58.70
2018-10-12T20:47:00.067Z,62.30
2018-10-12T20:49:52.574Z,66.70
2018-10-12T20:52:45.868Z,73.02
2018-10-12T20:55:41.280Z,86.42
2018-10-12T20:58:30.865Z,87.82
2018-10-12T21:01:22.261Z,88.35
2018-10-12T21:04:14.633Z,80.62
2018-10-12T21:07:06.417Z,74.47
2018-10-12T21:10:00.147Z,66.15
2018-10-12T21:12:52.716Z,65.25
2018-10-12T21:15:45.193Z,62.90
2018-10-12T21:18:37.163Z,59.63
2018-10-12T21:21:29.461Z,59.85
2018-10-12T21:24:22.273Z,55.10
2018-10-12T21:27:16.525Z,53.35
2018-10-12T21:30:08.377Z,49.35
2018-10-12T21:33:00.956Z,51.28
2018-10-12T21:35:50.861Z,49.50
2018-10-12T21:38:41.444Z,45.78
2018-10-12T21:41:33.633Z,44.00
2018-10-12T21:44:25.199Z,45.92
2018-10-12T21:47:16.724Z,44.25
2018-10-12T21:50:08.205Z,45.00
2018-10-12T21:53:00.596Z,41.58
2018-10-12T21:55:51.652Z,43.42
2018-10-12T21:58:43.908Z,43.05
2018-10-12T22:01:34.901Z,42.10
2018-10-12T22:04:28.656Z,41.00
2018-10-12T22:07:19.111Z,40.58
2018-10-12T22:10:10.924Z,44.08
2018-10-12T22:13:02.379Z,41.70
2018-10-12T22:15:52.427Z,39.45
2018-10-12T22:18:40.759Z,37.28
2018-10-12T22:21:29.325Z,38.05
2018-10-12T22:24:18.002Z,37.67
2018-10-12T22:27:08.195Z,38.95
2018-10-12T22:29:58.103Z,38.02
2018-10-12T22:32:47.093Z,39.85
2018-10-12T22:35:35.780Z,39.95
2018-10-12T22:38:25.519Z,40.85
2018-10-12T22:41:15.113Z,39.42
2018-10-12T22:44:06.358Z,38.63
2018-10-12T22:46:55.624Z,37.58
2018-10-12T22:49:45.626Z,37.20
2018-10-12T22:52:38.486Z,36.48
2018-10-12T22:55:32.323Z,36.05
2018-10-12T22:58:25.118Z,35.35
2018-10-12T23:01:19.263Z,36.98
2018-10-12T23:04:14.661Z,36.33
2018-10-12T23:07:12.664Z,38.60
2018-10-12T23:10:05.954Z,37.83
2018-10-12T23:12:59.870Z,38.88
2018-10-12T23:15:53.490Z,39.05
2018-10-12T23:18:47.210Z,37.03
2018-10-12T23:21:40.368Z,38.38
2018-10-12T23:24:33.908Z,36.28
2018-10-12T23:27:26.611Z,36.85
2018-10-12T23:30:20.382Z,35.03
2018-10-12T23:33:19.829Z,34.55
2018-10-12T23:36:13.582Z,34.15
2018-10-12T23:39:07.637Z,35.33
2018-10-12T23:42:01.917Z,35.33
2018-10-12T23:44:55.312Z,34.98
2018-10-12T23:47:47.672Z,36.35
2018-10-12T23:50:38.938Z,37.08
2018-10-12T23:53:30.078Z,37.88
2018-10-12T23:56:22.520Z,39.80
2018-10-12T23:59:12.278Z,41.18
